sensor_id;sensor_type;location;lat;lon;timestamp;temperature;humidity
46037;DHT22;31769;49.304;8.428;2023-08-17T00:01:36;20.70;99.90
46037;DHT22;31769;49.304;8.428;2023-08-17T00:04:36;20.70;99.90
46037;DHT22;31769;49.304;8.428;2023-08-17T00:07:37;20.70;99.90
46037;DHT22;31769;49.304;8.428;2023-08-17T00:10:38;20.70;99.90
46037;DHT22;31769;49.304;8.428;2023-08-17T00:13:39;20.70;99.90
46037;DHT22;31769;49.304;8.428;2023-08-17T00:16:39;20.70;99.90
46037;DHT22;31769;49.304;8.428;2023-08-17T00:19:41;20.60;99.90
46037;DHT22;31769;49.304;8.428;2023-08-17T00:22:42;20.60;99.90
46037;DHT22;31769;49.304;8.428;2023-08-17T00:25:43;20.60;99.90
46037;DHT22;31769;49.304;8.428;2023-08-17T00:28:43;20.60;99.90
46037;DHT22;31769;49.304;8.428;2023-08-17T00:31:45;20.60;99.90
46037;DHT22;31769;49.304;8.428;2023-08-17T00:34:45;20.60;99.90
46037;DHT22;31769;49.304;8.428;2023-08-17T00:37:46;20.60;99.90
46037;DHT22;31769;49.304;8.428;2023-08-17T00:40:47;20.60;99.90
46037;DHT22;31769;49.304;8.428;2023-08-17T00:43:48;20.60;99.90
46037;DHT22;31769;49.304;8.428;2023-08-17T00:46:48;20.50;99.90
46037;DHT22;31769;49.304;8.428;2023-08-17T00:49:49;20.50;99.90
46037;DHT22;31769;49.304;8.428;2023-08-17T00:52:51;20.50;99.90
46037;DHT22;31769;49.304;8.428;2023-08-17T00:55:53;20.50;99.90
46037;DHT22;31769;49.304;8.428;2023-08-17T00:58:54;20.50;99.90
46037;DHT22;31769;49.304;8.428;2023-08-17T01:01:55;20.40;99.90
46037;DHT22;31769;49.304;8.428;2023-08-17T01:04:56;20.40;99.90
46037;DHT22;31769;49.304;8.428;2023-08-17T01:07:59;20.30;99.90
46037;DHT22;31769;49.304;8.428;2023-08-17T01:11:09;20.30;99.90
46037;DHT22;31769;49.304;8.428;2023-08-17T01:14:19;20.40;99.90
46037;DHT22;31769;49.304;8.428;2023-08-17T01:17:33;20.30;99.90
46037;DHT22;31769;49.304;8.428;2023-08-17T01:20:34;20.30;99.90
46037;DHT22;31769;49.304;8.428;2023-08-17T01:23:35;20.40;99.90
46037;DHT22;31769;49.304;8.428;2023-08-17T01:26:36;20.30;99.90
46037;DHT22;31769;49.304;8.428;2023-08-17T01:29:36;20.30;99.90
46037;DHT22;31769;49.304;8.428;2023-08-17T01:32:45;20.30;99.90
46037;DHT22;31769;49.304;8.428;2023-08-17T01:36:13;20.40;99.90
46037;DHT22;31769;49.304;8.428;2023-08-17T01:39:21;20.40;99.90
46037;DHT22;31769;49.304;8.428;2023-08-17T01:42:23;20.30;99.90
46037;DHT22;31769;49.304;8.428;2023-08-17T01:45:25;20.30;99.90
46037;DHT22;31769;49.304;8.428;2023-08-17T01:48:26;20.20;99.90
46037;DHT22;31769;49.304;8.428;2023-08-17T01:51:26;20.20;99.90
46037;DHT22;31769;49.304;8.428;2023-08-17T01:54:28;20.20;99.90
46037;DHT22;31769;49.304;8.428;2023-08-17T01:57:30;20.10;99.90
46037;DHT22;31769;49.304;8.428;2023-08-17T02:00:31;19.90;99.90
46037;DHT22;31769;49.304;8.428;2023-08-17T02:03:31;20.10;99.90
46037;DHT22;31769;49.304;8.428;2023-08-17T02:06:32;20.10;99.90
46037;DHT22;31769;49.304;8.428;2023-08-17T02:09:33;20.10;99.90
46037;DHT22;31769;49.304;8.428;2023-08-17T02:12:33;20.00;99.90
46037;DHT22;31769;49.304;8.428;2023-08-17T02:15:41;19.90;99.90
46037;DHT22;31769;49.304;8.428;2023-08-17T02:18:41;19.90;99.90
46037;DHT22;31769;49.304;8.428;2023-08-17T02:21:42;19.80;99.90
46037;DHT22;31769;49.304;8.428;2023-08-17T02:24:43;19.80;99.90
46037;DHT22;31769;49.304;8.428;2023-08-17T02:27:43;19.80;99.90
46037;DHT22;31769;49.304;8.428;2023-08-17T02:30:45;19.70;99.90
46037;DHT22;31769;49.304;8.428;2023-08-17T02:33:46;19.80;99.90
46037;DHT22;31769;49.304;8.428;2023-08-17T02:36:47;19.90;99.90
46037;DHT22;31769;49.304;8.428;2023-08-17T02:39:48;19.60;99.90
46037;DHT22;31769;49.304;8.428;2023-08-17T02:42:48;19.60;99.90
46037;DHT22;31769;49.304;8.428;2023-08-17T02:45:49;19.50;99.90
46037;DHT22;31769;49.304;8.428;2023-08-17T02:48:50;19.70;99.90
46037;DHT22;31769;49.304;8.428;2023-08-17T02:51:52;19.40;99.90
46037;DHT22;31769;49.304;8.428;2023-08-17T02:54:53;19.40;99.90
46037;DHT22;31769;49.304;8.428;2023-08-17T02:57:53;19.50;99.90
46037;DHT22;31769;49.304;8.428;2023-08-17T03:00:54;19.50;99.90
46037;DHT22;31769;49.304;8.428;2023-08-17T03:03:55;19.40;99.90
46037;DHT22;31769;49.304;8.428;2023-08-17T03:06:55;19.40;99.90
46037;DHT22;31769;49.304;8.428;2023-08-17T03:09:56;19.50;99.90
46037;DHT22;31769;49.304;8.428;2023-08-17T03:12:56;19.50;99.90
46037;DHT22;31769;49.304;8.428;2023-08-17T03:15:57;19.50;99.90
46037;DHT22;31769;49.304;8.428;2023-08-17T03:18:58;19.50;99.90
46037;DHT22;31769;49.304;8.428;2023-08-17T03:21:58;19.50;99.90
46037;DHT22;31769;49.304;8.428;2023-08-17T03:24:59;19.50;99.90
46037;DHT22;31769;49.304;8.428;2023-08-17T03:28:01;19.50;99.90
46037;DHT22;31769;49.304;8.428;2023-08-17T03:31:02;19.60;99.90
46037;DHT22;31769;49.304;8.428;2023-08-17T03:34:03;19.60;99.90
46037;DHT22;31769;49.304;8.428;2023-08-17T03:37:04;19.60;99.90
46037;DHT22;31769;49.304;8.428;2023-08-17T03:40:06;19.60;99.90
46037;DHT22;31769;49.304;8.428;2023-08-17T03:43:07;19.60;99.90
46037;DHT22;31769;49.304;8.428;2023-08-17T03:46:07;19.50;99.90
46037;DHT22;31769;49.304;8.428;2023-08-17T03:49:09;19.40;99.90
46037;DHT22;31769;49.304;8.428;2023-08-17T03:52:11;19.50;99.90
46037;DHT22;31769;49.304;8.428;2023-08-17T03:55:11;19.50;99.90
46037;DHT22;31769;49.304;8.428;2023-08-17T03:58:12;19.50;99.90
46037;DHT22;31769;49.304;8.428;2023-08-17T04:01:13;19.50;99.90
46037;DHT22;31769;49.304;8.428;2023-08-17T04:04:15;19.50;99.90
46037;DHT22;31769;49.304;8.428;2023-08-17T04:07:22;19.40;99.90
46037;DHT22;31769;49.304;8.428;2023-08-17T04:10:23;19.50;99.90
46037;DHT22;31769;49.304;8.428;2023-08-17T04:13:24;19.60;99.90
46037;DHT22;31769;49.304;8.428;2023-08-17T04:16:24;19.40;99.90
46037;DHT22;31769;49.304;8.428;2023-08-17T04:19:25;19.30;99.90
46037;DHT22;31769;49.304;8.428;2023-08-17T04:22:26;19.40;99.90
46037;DHT22;31769;49.304;8.428;2023-08-17T04:25:27;19.30;99.90
46037;DHT22;31769;49.304;8.428;2023-08-17T04:28:27;19.40;99.90
46037;DHT22;31769;49.304;8.428;2023-08-17T04:31:28;19.40;99.90
46037;DHT22;31769;49.304;8.428;2023-08-17T04:34:34;19.50;99.90
46037;DHT22;31769;49.304;8.428;2023-08-17T04:37:35;19.40;99.90
46037;DHT22;31769;49.304;8.428;2023-08-17T04:40:36;19.50;99.90
46037;DHT22;31769;49.304;8.428;2023-08-17T04:43:38;19.50;99.90
46037;DHT22;31769;49.304;8.428;2023-08-17T04:46:38;19.40;99.90
46037;DHT22;31769;49.304;8.428;2023-08-17T04:49:39;19.50;99.90
46037;DHT22;31769;49.304;8.428;2023-08-17T04:52:40;19.70;99.90
46037;DHT22;31769;49.304;8.428;2023-08-17T04:55:40;19.60;99.90
46037;DHT22;31769;49.304;8.428;2023-08-17T04:58:41;19.70;99.90
46037;DHT22;31769;49.304;8.428;2023-08-17T05:01:44;19.80;99.90
46037;DHT22;31769;49.304;8.428;2023-08-17T05:04:46;19.80;99.90
46037;DHT22;31769;49.304;8.428;2023-08-17T05:07:47;19.80;99.90
46037;DHT22;31769;49.304;8.428;2023-08-17T05:10:48;19.80;99.90
46037;DHT22;31769;49.304;8.428;2023-08-17T05:13:49;20.40;99.90
46037;DHT22;31769;49.304;8.428;2023-08-17T05:16:50;20.10;99.90
46037;DHT22;31769;49.304;8.428;2023-08-17T05:19:51;20.00;99.90
46037;DHT22;31769;49.304;8.428;2023-08-17T05:22:52;20.10;99.90
46037;DHT22;31769;49.304;8.428;2023-08-17T05:25:53;20.20;99.90
46037;DHT22;31769;49.304;8.428;2023-08-17T05:28:54;20.20;99.90
46037;DHT22;31769;49.304;8.428;2023-08-17T05:31:54;20.20;99.90
46037;DHT22;31769;49.304;8.428;2023-08-17T05:34:57;20.20;99.90
46037;DHT22;31769;49.304;8.428;2023-08-17T05:37:57;20.30;99.90
46037;DHT22;31769;49.304;8.428;2023-08-17T05:40:58;20.30;99.90
46037;DHT22;31769;49.304;8.428;2023-08-17T05:43:59;20.30;99.90
46037;DHT22;31769;49.304;8.428;2023-08-17T05:47:01;20.40;99.90
46037;DHT22;31769;49.304;8.428;2023-08-17T05:50:02;20.50;99.90
46037;DHT22;31769;49.304;8.428;2023-08-17T05:53:03;20.50;99.90
46037;DHT22;31769;49.304;8.428;2023-08-17T05:56:03;20.50;99.90
46037;DHT22;31769;49.304;8.428;2023-08-17T05:59:04;20.50;99.90
46037;DHT22;31769;49.304;8.428;2023-08-17T06:02:05;20.50;99.90
46037;DHT22;31769;49.304;8.428;2023-08-17T06:05:06;20.50;99.90
46037;DHT22;31769;49.304;8.428;2023-08-17T06:08:08;20.60;99.90
46037;DHT22;31769;49.304;8.428;2023-08-17T06:11:08;20.60;99.90
46037;DHT22;31769;49.304;8.428;2023-08-17T06:14:09;20.60;99.90
46037;DHT22;31769;49.304;8.428;2023-08-17T06:17:09;20.70;99.90
46037;DHT22;31769;49.304;8.428;2023-08-17T06:20:11;20.80;99.90
46037;DHT22;31769;49.304;8.428;2023-08-17T06:23:12;20.90;99.90
46037;DHT22;31769;49.304;8.428;2023-08-17T06:26:13;20.90;99.90
46037;DHT22;31769;49.304;8.428;2023-08-17T06:29:14;20.80;99.90
46037;DHT22;31769;49.304;8.428;2023-08-17T06:32:14;20.80;99.90
46037;DHT22;31769;49.304;8.428;2023-08-17T06:35:15;20.70;99.90
46037;DHT22;31769;49.304;8.428;2023-08-17T06:38:15;20.70;99.90
46037;DHT22;31769;49.304;8.428;2023-08-17T06:41:16;20.70;99.90
46037;DHT22;31769;49.304;8.428;2023-08-17T06:44:17;20.80;99.90
46037;DHT22;31769;49.304;8.428;2023-08-17T06:47:18;20.80;99.90
46037;DHT22;31769;49.304;8.428;2023-08-17T06:50:18;21.00;99.90
46037;DHT22;31769;49.304;8.428;2023-08-17T06:53:19;21.10;99.90
46037;DHT22;31769;49.304;8.428;2023-08-17T06:56:20;21.20;99.90
46037;DHT22;31769;49.304;8.428;2023-08-17T06:59:20;21.30;99.90
46037;DHT22;31769;49.304;8.428;2023-08-17T07:02:22;21.30;99.90
46037;DHT22;31769;49.304;8.428;2023-08-17T07:05:23;21.40;99.90
46037;DHT22;31769;49.304;8.428;2023-08-17T07:08:24;21.30;99.90
46037;DHT22;31769;49.304;8.428;2023-08-17T07:11:24;21.50;99.90
46037;DHT22;31769;49.304;8.428;2023-08-17T07:14:25;21.70;99.90
46037;DHT22;31769;49.304;8.428;2023-08-17T07:17:26;21.90;99.90
46037;DHT22;31769;49.304;8.428;2023-08-17T07:20:26;22.00;99.90
46037;DHT22;31769;49.304;8.428;2023-08-17T07:23:27;22.10;99.90
46037;DHT22;31769;49.304;8.428;2023-08-17T07:26:28;22.10;99.90
46037;DHT22;31769;49.304;8.428;2023-08-17T07:29:28;22.00;99.90
46037;DHT22;31769;49.304;8.428;2023-08-17T07:32:29;21.90;99.90
46037;DHT22;31769;49.304;8.428;2023-08-17T07:35:30;22.00;99.90
46037;DHT22;31769;49.304;8.428;2023-08-17T07:38:30;22.20;99.90
46037;DHT22;31769;49.304;8.428;2023-08-17T07:41:31;22.20;99.90
46037;DHT22;31769;49.304;8.428;2023-08-17T07:44:32;22.30;99.90
46037;DHT22;31769;49.304;8.428;2023-08-17T07:47:36;22.50;99.90
46037;DHT22;31769;49.304;8.428;2023-08-17T07:50:37;22.60;99.90
46037;DHT22;31769;49.304;8.428;2023-08-17T07:53:39;22.70;99.90
46037;DHT22;31769;49.304;8.428;2023-08-17T07:56:40;22.70;99.90
46037;DHT22;31769;49.304;8.428;2023-08-17T07:59:40;22.80;99.90
46037;DHT22;31769;49.304;8.428;2023-08-17T08:02:41;22.90;99.90
46037;DHT22;31769;49.304;8.428;2023-08-17T08:05:41;23.10;99.90
46037;DHT22;31769;49.304;8.428;2023-08-17T08:08:42;23.40;99.90
46037;DHT22;31769;49.304;8.428;2023-08-17T08:11:43;23.70;99.90
46037;DHT22;31769;49.304;8.428;2023-08-17T08:14:43;23.80;99.90
46037;DHT22;31769;49.304;8.428;2023-08-17T08:17:44;23.90;99.90
46037;DHT22;31769;49.304;8.428;2023-08-17T08:20:45;23.80;99.90
46037;DHT22;31769;49.304;8.428;2023-08-17T08:23:45;23.80;99.90
46037;DHT22;31769;49.304;8.428;2023-08-17T08:26:46;23.80;99.90
46037;DHT22;31769;49.304;8.428;2023-08-17T08:29:47;23.90;99.90
46037;DHT22;31769;49.304;8.428;2023-08-17T08:32:47;23.90;99.90
46037;DHT22;31769;49.304;8.428;2023-08-17T08:35:48;24.30;99.90
46037;DHT22;31769;49.304;8.428;2023-08-17T08:38:49;24.30;99.90
46037;DHT22;31769;49.304;8.428;2023-08-17T08:41:49;24.50;99.90
46037;DHT22;31769;49.304;8.428;2023-08-17T08:44:50;24.40;99.90
46037;DHT22;31769;49.304;8.428;2023-08-17T08:47:51;24.50;99.90
46037;DHT22;31769;49.304;8.428;2023-08-17T08:50:54;24.40;99.90
46037;DHT22;31769;49.304;8.428;2023-08-17T08:54:01;24.80;99.90
46037;DHT22;31769;49.304;8.428;2023-08-17T08:57:08;25.30;99.90
46037;DHT22;31769;49.304;8.428;2023-08-17T09:00:12;25.80;99.90
46037;DHT22;31769;49.304;8.428;2023-08-17T09:03:15;25.90;99.90
46037;DHT22;31769;49.304;8.428;2023-08-17T09:06:19;25.80;99.90
46037;DHT22;31769;49.304;8.428;2023-08-17T09:09:21;25.80;99.90
46037;DHT22;31769;49.304;8.428;2023-08-17T09:12:23;25.70;99.90
46037;DHT22;31769;49.304;8.428;2023-08-17T09:15:23;25.30;99.90
46037;DHT22;31769;49.304;8.428;2023-08-17T09:18:24;25.10;99.90
46037;DHT22;31769;49.304;8.428;2023-08-17T09:21:25;25.30;99.90
46037;DHT22;31769;49.304;8.428;2023-08-17T09:24:35;25.50;99.90
46037;DHT22;31769;49.304;8.428;2023-08-17T09:27:39;25.40;99.90
46037;DHT22;31769;49.304;8.428;2023-08-17T09:30:54;25.60;99.90
46037;DHT22;31769;49.304;8.428;2023-08-17T09:33:55;25.70;99.90
46037;DHT22;31769;49.304;8.428;2023-08-17T09:36:56;25.70;99.90
46037;DHT22;31769;49.304;8.428;2023-08-17T09:39:56;25.90;99.90
46037;DHT22;31769;49.304;8.428;2023-08-17T09:42:57;25.80;99.90
46037;DHT22;31769;49.304;8.428;2023-08-17T09:45:57;25.70;99.90
46037;DHT22;31769;49.304;8.428;2023-08-17T09:49:02;25.50;99.90
46037;DHT22;31769;49.304;8.428;2023-08-17T09:52:04;25.60;99.90
46037;DHT22;31769;49.304;8.428;2023-08-17T09:55:07;25.70;99.90
46037;DHT22;31769;49.304;8.428;2023-08-17T09:58:09;25.80;99.90
46037;DHT22;31769;49.304;8.428;2023-08-17T10:01:11;25.60;99.90
46037;DHT22;31769;49.304;8.428;2023-08-17T10:04:13;25.50;99.90
46037;DHT22;31769;49.304;8.428;2023-08-17T10:07:16;25.60;99.90
46037;DHT22;31769;49.304;8.428;2023-08-17T10:10:22;25.80;99.90
46037;DHT22;31769;49.304;8.428;2023-08-17T10:13:39;25.70;99.90
46037;DHT22;31769;49.304;8.428;2023-08-17T10:16:45;25.60;99.90
46037;DHT22;31769;49.304;8.428;2023-08-17T10:19:58;25.60;99.90
46037;DHT22;31769;49.304;8.428;2023-08-17T10:23:14;25.70;99.90
46037;DHT22;31769;49.304;8.428;2023-08-17T10:26:15;25.50;99.90
46037;DHT22;31769;49.304;8.428;2023-08-17T10:29:18;25.40;99.90
46037;DHT22;31769;49.304;8.428;2023-08-17T10:32:21;25.50;99.90
46037;DHT22;31769;49.304;8.428;2023-08-17T10:35:22;25.70;99.90
46037;DHT22;31769;49.304;8.428;2023-08-17T10:38:23;26.00;99.90
46037;DHT22;31769;49.304;8.428;2023-08-17T10:41:24;26.10;99.90
46037;DHT22;31769;49.304;8.428;2023-08-17T10:44:44;25.90;99.90
46037;DHT22;31769;49.304;8.428;2023-08-17T10:47:45;26.00;99.90
46037;DHT22;31769;49.304;8.428;2023-08-17T10:50:59;26.30;99.90
46037;DHT22;31769;49.304;8.428;2023-08-17T10:54:03;26.50;99.90
46037;DHT22;31769;49.304;8.428;2023-08-17T10:57:37;26.60;99.90
46037;DHT22;31769;49.304;8.428;2023-08-17T11:00:39;26.60;99.90
46037;DHT22;31769;49.304;8.428;2023-08-17T11:03:41;26.90;99.90
46037;DHT22;31769;49.304;8.428;2023-08-17T11:06:45;27.00;99.90
46037;DHT22;31769;49.304;8.428;2023-08-17T11:09:45;27.10;99.90
46037;DHT22;31769;49.304;8.428;2023-08-17T11:12:46;27.20;99.90
46037;DHT22;31769;49.304;8.428;2023-08-17T11:15:47;27.20;99.90
46037;DHT22;31769;49.304;8.428;2023-08-17T11:18:48;27.20;99.90
46037;DHT22;31769;49.304;8.428;2023-08-17T11:21:51;27.60;99.90
46037;DHT22;31769;49.304;8.428;2023-08-17T11:24:52;27.80;99.90
46037;DHT22;31769;49.304;8.428;2023-08-17T11:27:54;28.00;99.90
46037;DHT22;31769;49.304;8.428;2023-08-17T11:30:58;28.20;99.90
46037;DHT22;31769;49.304;8.428;2023-08-17T11:33:59;28.40;99.90
46037;DHT22;31769;49.304;8.428;2023-08-17T11:37:00;28.90;99.90
46037;DHT22;31769;49.304;8.428;2023-08-17T11:40:01;29.50;99.90
46037;DHT22;31769;49.304;8.428;2023-08-17T11:43:01;29.70;99.90
46037;DHT22;31769;49.304;8.428;2023-08-17T11:46:02;29.70;99.90
46037;DHT22;31769;49.304;8.428;2023-08-17T11:49:03;29.90;99.90
46037;DHT22;31769;49.304;8.428;2023-08-17T11:52:08;30.00;99.90
46037;DHT22;31769;49.304;8.428;2023-08-17T11:55:09;29.90;99.90
46037;DHT22;31769;49.304;8.428;2023-08-17T11:58:12;30.10;99.90
46037;DHT22;31769;49.304;8.428;2023-08-17T12:01:13;29.60;99.90
46037;DHT22;31769;49.304;8.428;2023-08-17T12:04:16;29.00;99.90
46037;DHT22;31769;49.304;8.428;2023-08-17T12:07:17;28.50;99.90
46037;DHT22;31769;49.304;8.428;2023-08-17T12:10:19;28.50;99.90
46037;DHT22;31769;49.304;8.428;2023-08-17T12:13:20;28.60;99.90
46037;DHT22;31769;49.304;8.428;2023-08-17T12:16:21;29.40;99.90
46037;DHT22;31769;49.304;8.428;2023-08-17T12:19:25;29.90;99.90
46037;DHT22;31769;49.304;8.428;2023-08-17T12:22:26;30.00;99.90
46037;DHT22;31769;49.304;8.428;2023-08-17T12:25:27;30.00;99.90
46037;DHT22;31769;49.304;8.428;2023-08-17T12:28:28;30.30;99.90
46037;DHT22;31769;49.304;8.428;2023-08-17T12:31:29;30.50;99.90
46037;DHT22;31769;49.304;8.428;2023-08-17T12:34:30;30.00;99.90
46037;DHT22;31769;49.304;8.428;2023-08-17T12:37:31;29.50;99.90
46037;DHT22;31769;49.304;8.428;2023-08-17T12:40:31;29.20;99.90
46037;DHT22;31769;49.304;8.428;2023-08-17T12:43:33;29.10;99.90
46037;DHT22;31769;49.304;8.428;2023-08-17T12:46:33;29.00;99.90
46037;DHT22;31769;49.304;8.428;2023-08-17T12:49:35;28.90;99.90
46037;DHT22;31769;49.304;8.428;2023-08-17T12:52:36;28.60;99.90
46037;DHT22;31769;49.304;8.428;2023-08-17T12:55:37;28.50;99.90
46037;DHT22;31769;49.304;8.428;2023-08-17T12:58:37;28.30;99.90
46037;DHT22;31769;49.304;8.428;2023-08-17T13:01:38;28.10;99.90
46037;DHT22;31769;49.304;8.428;2023-08-17T13:04:41;28.00;99.90
46037;DHT22;31769;49.304;8.428;2023-08-17T13:07:42;28.00;99.90
46037;DHT22;31769;49.304;8.428;2023-08-17T13:10:42;28.00;99.90
46037;DHT22;31769;49.304;8.428;2023-08-17T13:13:43;28.10;99.90
46037;DHT22;31769;49.304;8.428;2023-08-17T13:16:43;28.30;99.90
46037;DHT22;31769;49.304;8.428;2023-08-17T13:19:44;28.70;99.90
46037;DHT22;31769;49.304;8.428;2023-08-17T13:22:45;29.10;99.90
46037;DHT22;31769;49.304;8.428;2023-08-17T13:25:45;29.60;99.90
46037;DHT22;31769;49.304;8.428;2023-08-17T13:28:46;29.80;99.90
46037;DHT22;31769;49.304;8.428;2023-08-17T13:31:47;29.80;99.90
46037;DHT22;31769;49.304;8.428;2023-08-17T13:34:48;30.70;99.90
46037;DHT22;31769;49.304;8.428;2023-08-17T13:37:52;31.90;99.90
46037;DHT22;31769;49.304;8.428;2023-08-17T13:40:57;34.10;99.90
46037;DHT22;31769;49.304;8.428;2023-08-17T13:43:58;36.00;99.90
46037;DHT22;31769;49.304;8.428;2023-08-17T13:47:01;37.50;97.10
46037;DHT22;31769;49.304;8.428;2023-08-17T13:50:02;38.40;94.30
46037;DHT22;31769;49.304;8.428;2023-08-17T13:53:03;39.00;92.00
46037;DHT22;31769;49.304;8.428;2023-08-17T13:56:04;39.60;90.40
46037;DHT22;31769;49.304;8.428;2023-08-17T13:59:05;39.70;87.80
46037;DHT22;31769;49.304;8.428;2023-08-17T14:02:06;40.00;84.00
46037;DHT22;31769;49.304;8.428;2023-08-17T14:05:07;40.70;80.80
46037;DHT22;31769;49.304;8.428;2023-08-17T14:08:07;40.50;79.30
46037;DHT22;31769;49.304;8.428;2023-08-17T14:11:11;41.10;78.20
46037;DHT22;31769;49.304;8.428;2023-08-17T14:14:11;41.80;74.90
46037;DHT22;31769;49.304;8.428;2023-08-17T14:17:12;41.50;73.50
46037;DHT22;31769;49.304;8.428;2023-08-17T14:20:13;42.00;72.20
46037;DHT22;31769;49.304;8.428;2023-08-17T14:23:14;42.10;72.30
46037;DHT22;31769;49.304;8.428;2023-08-17T14:26:15;42.80;70.30
46037;DHT22;31769;49.304;8.428;2023-08-17T14:29:16;43.30;67.90
46037;DHT22;31769;49.304;8.428;2023-08-17T14:32:16;43.30;66.60
46037;DHT22;31769;49.304;8.428;2023-08-17T14:35:17;43.60;65.70
46037;DHT22;31769;49.304;8.428;2023-08-17T14:38:17;43.10;65.60
46037;DHT22;31769;49.304;8.428;2023-08-17T14:41:18;42.40;65.90
46037;DHT22;31769;49.304;8.428;2023-08-17T14:44:19;41.90;67.10
46037;DHT22;31769;49.304;8.428;2023-08-17T14:47:19;41.10;67.30
46037;DHT22;31769;49.304;8.428;2023-08-17T14:50:20;41.20;67.50
46037;DHT22;31769;49.304;8.428;2023-08-17T14:53:20;40.70;68.30
46037;DHT22;31769;49.304;8.428;2023-08-17T14:56:21;41.20;67.20
46037;DHT22;31769;49.304;8.428;2023-08-17T14:59:23;42.10;65.40
46037;DHT22;31769;49.304;8.428;2023-08-17T15:02:23;43.20;63.30
46037;DHT22;31769;49.304;8.428;2023-08-17T15:05:25;42.50;63.20
46037;DHT22;31769;49.304;8.428;2023-08-17T15:08:25;41.60;63.90
46037;DHT22;31769;49.304;8.428;2023-08-17T15:11:26;41.70;63.70
46037;DHT22;31769;49.304;8.428;2023-08-17T15:14:26;42.40;62.70
46037;DHT22;31769;49.304;8.428;2023-08-17T15:17:27;41.50;63.40
46037;DHT22;31769;49.304;8.428;2023-08-17T15:20:28;40.70;64.10
46037;DHT22;31769;49.304;8.428;2023-08-17T15:23:30;42.00;63.30
46037;DHT22;31769;49.304;8.428;2023-08-17T15:26:31;43.00;61.70
46037;DHT22;31769;49.304;8.428;2023-08-17T15:29:31;43.20;61.10
46037;DHT22;31769;49.304;8.428;2023-08-17T15:32:32;43.50;60.20
46037;DHT22;31769;49.304;8.428;2023-08-17T15:35:33;43.70;59.70
46037;DHT22;31769;49.304;8.428;2023-08-17T15:38:33;43.60;59.00
46037;DHT22;31769;49.304;8.428;2023-08-17T15:41:34;43.50;58.10
46037;DHT22;31769;49.304;8.428;2023-08-17T15:44:34;43.10;58.90
46037;DHT22;31769;49.304;8.428;2023-08-17T15:47:35;43.40;58.60
46037;DHT22;31769;49.304;8.428;2023-08-17T15:50:36;43.60;58.60
46037;DHT22;31769;49.304;8.428;2023-08-17T15:53:36;44.40;58.20
46037;DHT22;31769;49.304;8.428;2023-08-17T15:56:39;45.00;57.30
46037;DHT22;31769;49.304;8.428;2023-08-17T15:59:40;46.30;55.60
46037;DHT22;31769;49.304;8.428;2023-08-17T16:02:41;46.40;54.00
46037;DHT22;31769;49.304;8.428;2023-08-17T16:05:41;46.10;53.20
46037;DHT22;31769;49.304;8.428;2023-08-17T16:08:43;46.20;54.00
46037;DHT22;31769;49.304;8.428;2023-08-17T16:11:43;46.20;53.70
46037;DHT22;31769;49.304;8.428;2023-08-17T16:14:44;46.90;52.90
46037;DHT22;31769;49.304;8.428;2023-08-17T16:17:44;46.80;51.90
46037;DHT22;31769;49.304;8.428;2023-08-17T16:20:45;45.50;53.80
46037;DHT22;31769;49.304;8.428;2023-08-17T16:23:46;45.10;55.00
46037;DHT22;31769;49.304;8.428;2023-08-17T16:26:46;44.10;55.50
46037;DHT22;31769;49.304;8.428;2023-08-17T16:29:47;44.10;56.00
46037;DHT22;31769;49.304;8.428;2023-08-17T16:32:47;45.10;54.90
46037;DHT22;31769;49.304;8.428;2023-08-17T16:35:48;45.30;54.40
46037;DHT22;31769;49.304;8.428;2023-08-17T16:38:49;45.20;54.10
46037;DHT22;31769;49.304;8.428;2023-08-17T16:41:49;45.40;53.90
46037;DHT22;31769;49.304;8.428;2023-08-17T16:44:50;45.20;54.00
46037;DHT22;31769;49.304;8.428;2023-08-17T16:47:51;44.90;54.50
46037;DHT22;31769;49.304;8.428;2023-08-17T16:50:51;44.60;54.70
46037;DHT22;31769;49.304;8.428;2023-08-17T16:53:52;43.90;55.30
46037;DHT22;31769;49.304;8.428;2023-08-17T16:56:54;43.90;55.60
46037;DHT22;31769;49.304;8.428;2023-08-17T16:59:54;43.70;55.60
46037;DHT22;31769;49.304;8.428;2023-08-17T17:02:55;43.70;55.50
46037;DHT22;31769;49.304;8.428;2023-08-17T17:05:56;43.90;55.60
46037;DHT22;31769;49.304;8.428;2023-08-17T17:08:56;43.90;55.70
46037;DHT22;31769;49.304;8.428;2023-08-17T17:11:57;43.60;56.00
46037;DHT22;31769;49.304;8.428;2023-08-17T17:14:58;43.10;56.50
46037;DHT22;31769;49.304;8.428;2023-08-17T17:17:59;42.50;57.30
46037;DHT22;31769;49.304;8.428;2023-08-17T17:20:59;42.20;57.90
46037;DHT22;31769;49.304;8.428;2023-08-17T17:24:00;41.50;58.40
46037;DHT22;31769;49.304;8.428;2023-08-17T17:27:01;40.80;59.60
46037;DHT22;31769;49.304;8.428;2023-08-17T17:30:01;39.70;61.00
46037;DHT22;31769;49.304;8.428;2023-08-17T17:33:02;39.00;62.50
46037;DHT22;31769;49.304;8.428;2023-08-17T17:36:03;38.10;64.20
46037;DHT22;31769;49.304;8.428;2023-08-17T17:39:04;37.20;66.00
46037;DHT22;31769;49.304;8.428;2023-08-17T17:42:05;36.30;68.70
46037;DHT22;31769;49.304;8.428;2023-08-17T17:45:06;35.00;70.70
46037;DHT22;31769;49.304;8.428;2023-08-17T17:48:07;34.00;73.50
46037;DHT22;31769;49.304;8.428;2023-08-17T17:51:08;33.20;75.80
46037;DHT22;31769;49.304;8.428;2023-08-17T17:54:08;32.50;78.30
46037;DHT22;31769;49.304;8.428;2023-08-17T17:57:09;31.80;80.20
46037;DHT22;31769;49.304;8.428;2023-08-17T18:00:10;31.40;82.10
46037;DHT22;31769;49.304;8.428;2023-08-17T18:03:16;31.00;84.50
46037;DHT22;31769;49.304;8.428;2023-08-17T18:06:17;30.60;86.30
46037;DHT22;31769;49.304;8.428;2023-08-17T18:09:19;30.20;89.00
46037;DHT22;31769;49.304;8.428;2023-08-17T18:12:20;29.70;90.60
46037;DHT22;31769;49.304;8.428;2023-08-17T18:15:20;29.50;92.00
46037;DHT22;31769;49.304;8.428;2023-08-17T18:18:21;29.30;93.30
46037;DHT22;31769;49.304;8.428;2023-08-17T18:21:21;29.00;94.80
46037;DHT22;31769;49.304;8.428;2023-08-17T18:24:22;28.90;96.30
46037;DHT22;31769;49.304;8.428;2023-08-17T18:27:23;28.60;98.20
46037;DHT22;31769;49.304;8.428;2023-08-17T18:30:24;28.50;99.80
46037;DHT22;31769;49.304;8.428;2023-08-17T18:33:24;28.40;99.90
46037;DHT22;31769;49.304;8.428;2023-08-17T18:36:25;28.20;99.90
46037;DHT22;31769;49.304;8.428;2023-08-17T18:39:26;27.90;99.90
46037;DHT22;31769;49.304;8.428;2023-08-17T18:42:26;27.70;99.90
46037;DHT22;31769;49.304;8.428;2023-08-17T18:45:27;27.50;99.90
46037;DHT22;31769;49.304;8.428;2023-08-17T18:48:28;27.60;99.90
46037;DHT22;31769;49.304;8.428;2023-08-17T18:51:28;27.30;99.90
46037;DHT22;31769;49.304;8.428;2023-08-17T18:54:29;27.10;99.90
46037;DHT22;31769;49.304;8.428;2023-08-17T18:57:29;27.10;99.90
46037;DHT22;31769;49.304;8.428;2023-08-17T19:00:30;27.00;99.90
46037;DHT22;31769;49.304;8.428;2023-08-17T19:03:31;26.90;99.90
46037;DHT22;31769;49.304;8.428;2023-08-17T19:06:31;26.80;99.90